Time;durP1;ratioP1;P1;durP2;ratioP2;P2;SDS_P1;SDS_P2;PMS_P1;PMS_P2;Temp;Humidity;BMP_temperature;BMP_pressure;BME280_temperature;BME280_humidity;BME280_pressure;Samples;Min_cycle;Max_cycle;Signal;HPM_P1;HPM_P2
2022/03/22 00:00:36;;;;;;;5.85;4.30;;;0.90;66.30;;;;;;5020005;28;20037;-71
2022/03/22 00:03:02;;;;;;;6.57;4.15;;;0.70;67.20;;;;;;5020641;28;20038;-72
2022/03/22 00:05:27;;;;;;;7.38;4.25;;;0.60;68.30;;;;;;5018370;28;20486;-71
2022/03/22 00:07:53;;;;;;;5.80;3.80;;;0.60;68.40;;;;;;5021712;28;20053;-71
2022/03/22 00:10:19;;;;;;;9.18;4.63;;;0.60;69.00;;;;;;5016374;28;20038;-71
2022/03/22 00:12:47;;;;;;;8.85;5.22;;;0.60;68.70;;;;;;5015733;28;20833;-72
2022/03/22 00:15:13;;;;;;;7.53;4.18;;;0.70;68.90;;;;;;5016731;28;20036;-70
2022/03/22 00:17:39;;;;;;;8.55;4.30;;;0.70;68.60;;;;;;5023460;28;20406;-70
2022/03/22 00:20:07;;;;;;;8.23;4.60;;;0.60;67.50;;;;;;5025737;28;20041;-70
2022/03/22 00:22:33;;;;;;;7.82;4.50;;;0.40;67.90;;;;;;5012692;28;20503;-71
2022/03/22 00:24:59;;;;;;;6.43;4.05;;;0.10;68.70;;;;;;5020014;28;20490;-71
2022/03/22 00:27:25;;;;;;;7.60;4.38;;;0.10;70.10;;;;;;5005929;28;20034;-71
2022/03/22 00:29:50;;;;;;;7.80;4.05;;;0.10;71.10;;;;;;5021556;28;20087;-70
2022/03/22 00:32:17;;;;;;;8.57;5.22;;;0.20;71.10;;;;;;5018479;28;20028;-70
2022/03/22 00:34:46;;;;;;;8.63;5.55;;;0.30;70.30;;;;;;5017646;28;20486;-71
2022/03/22 00:37:15;;;;;;;9.15;5.05;;;0.40;70.60;;;;;;5016755;28;20128;-70
2022/03/22 00:39:43;;;;;;;6.53;4.05;;;0.50;71.10;;;;;;5012699;28;20037;-70
2022/03/22 00:42:09;;;;;;;8.15;5.00;;;0.50;70.90;;;;;;5015615;28;20095;-70
2022/03/22 00:44:36;;;;;;;9.65;5.25;;;0.50;71.20;;;;;;5013077;28;20061;-70
2022/03/22 00:47:02;;;;;;;7.65;4.38;;;0.60;70.20;;;;;;5015713;28;20119;-69
2022/03/22 00:49:28;;;;;;;9.43;5.15;;;0.60;70.30;;;;;;5011062;28;20126;-71
2022/03/22 00:51:53;;;;;;;7.82;5.07;;;0.70;70.30;;;;;;5015951;28;20681;-71
2022/03/22 00:54:20;;;;;;;7.30;4.88;;;0.70;70.60;;;;;;5017195;28;20088;-71
2022/03/22 00:56:45;;;;;;;6.88;4.63;;;0.60;69.60;;;;;;5018262;28;20041;-71
2022/03/22 01:01:55;;;;;;;7.30;5.35;;;0.20;70.80;;;;;;5018360;28;20145;-71
2022/03/22 01:04:24;;;;;;;8.15;4.35;;;0.10;71.30;;;;;;5024404;28;20130;-70
2022/03/22 01:06:50;;;;;;;6.40;4.40;;;0.10;71.30;;;;;;5014533;28;20034;-70
2022/03/22 01:09:16;;;;;;;7.55;4.35;;;0.00;71.20;;;;;;5020777;28;20490;-70
2022/03/22 01:11:42;;;;;;;6.43;4.25;;;0.00;71.00;;;;;;5020928;28;20103;-70
2022/03/22 01:14:08;;;;;;;8.07;5.18;;;0.00;71.60;;;;;;5021396;28;20041;-70
2022/03/22 01:16:34;;;;;;;6.10;4.20;;;0.00;72.50;;;;;;5022041;28;20128;-69
2022/03/22 01:19:00;;;;;;;7.32;4.57;;;0.00;71.90;;;;;;5018165;28;20538;-69
2022/03/22 01:21:25;;;;;;;8.38;5.03;;;0.00;71.10;;;;;;5021642;28;20405;-70
2022/03/22 01:23:52;;;;;;;7.15;4.90;;;0.10;71.10;;;;;;5019082;28;20041;-70
2022/03/22 01:26:19;;;;;;;8.05;4.80;;;0.30;71.00;;;;;;5017091;28;20053;-70
2022/03/22 01:28:46;;;;;;;6.13;4.40;;;0.30;70.00;;;;;;5023157;28;20038;-70
2022/03/22 01:31:12;;;;;;;6.35;4.10;;;0.10;71.20;;;;;;5025513;28;20037;-69
2022/03/22 01:33:37;;;;;;;12.02;4.43;;;-0.10;71.80;;;;;;5022593;28;20284;-69
2022/03/22 01:36:03;;;;;;;7.32;5.07;;;-0.30;72.00;;;;;;5027651;28;20099;-69
2022/03/22 01:38:29;;;;;;;8.98;5.10;;;-0.40;73.70;;;;;;5021912;28;20049;-68
2022/03/22 01:40:55;;;;;;;9.35;4.60;;;-0.30;74.10;;;;;;5019371;28;20752;-68
2022/03/22 01:43:20;;;;;;;8.05;4.57;;;-0.30;74.10;;;;;;5016753;28;20028;-68
2022/03/22 01:45:48;;;;;;;9.00;5.20;;;-0.20;73.90;;;;;;5021178;28;20402;-68
2022/03/22 01:48:14;;;;;;;7.50;4.90;;;-0.30;73.60;;;;;;5015309;28;22323;-69
2022/03/22 01:50:41;;;;;;;6.68;4.57;;;-0.20;74.30;;;;;;5019396;28;20499;-69
2022/03/22 01:53:10;;;;;;;9.32;5.10;;;-0.20;74.50;;;;;;5024586;28;20029;-69
2022/03/22 01:55:36;;;;;;;8.38;4.88;;;-0.10;73.80;;;;;;5020121;28;20025;-69
2022/03/22 01:58:03;;;;;;;9.48;4.68;;;0.00;75.00;;;;;;5014904;28;20029;-68
2022/03/22 02:00:28;;;;;;;10.18;4.95;;;-0.10;73.00;;;;;;5009154;28;20034;-68
2022/03/22 02:05:56;;;;;;;9.68;4.45;;;-0.50;72.90;;;;;;5022807;28;20142;-68
2022/03/22 02:08:28;;;;;;;8.95;5.40;;;-0.50;74.90;;;;;;5020881;28;20042;-71
2022/03/22 02:10:55;;;;;;;8.13;5.18;;;-0.40;75.10;;;;;;5025185;28;20921;-71
2022/03/22 02:13:21;;;;;;;7.95;4.18;;;-0.40;76.60;;;;;;5021211;28;21120;-71
2022/03/22 02:15:51;;;;;;;6.65;4.47;;;-0.30;76.20;;;;;;5022308;28;20061;-71
2022/03/22 02:18:17;;;;;;;10.05;4.88;;;-0.30;75.80;;;;;;5021060;28;20041;-69
2022/03/22 02:20:45;;;;;;;7.82;5.00;;;-0.30;76.70;;;;;;5020211;28;20045;-69
2022/03/22 02:23:14;;;;;;;8.90;5.40;;;-0.30;76.50;;;;;;5013762;28;20091;-69
2022/03/22 02:25:40;;;;;;;8.93;4.88;;;-0.40;75.50;;;;;;5026776;28;20041;-69
2022/03/22 02:28:06;;;;;;;7.20;4.72;;;-0.60;75.10;;;;;;5019374;28;20073;-70
2022/03/22 02:30:32;;;;;;;10.75;5.47;;;-0.70;75.70;;;;;;5019616;28;20060;-69
2022/03/22 02:33:01;;;;;;;8.18;4.95;;;-0.80;76.20;;;;;;5026062;28;20120;-69
2022/03/22 02:35:28;;;;;;;7.47;4.28;;;-0.90;78.20;;;;;;5013790;28;20030;-69
2022/03/22 02:37:54;;;;;;;10.55;4.88;;;-0.90;77.90;;;;;;5024162;28;20029;-69
2022/03/22 02:40:20;;;;;;;8.35;5.00;;;-0.90;77.70;;;;;;5007599;28;20768;-69
2022/03/22 02:42:50;;;;;;;6.85;5.00;;;-0.90;78.80;;;;;;5022763;28;20048;-69
2022/03/22 02:45:18;;;;;;;13.07;5.10;;;-0.80;78.20;;;;;;5022102;28;20060;-69
2022/03/22 02:47:44;;;;;;;10.00;5.43;;;-0.70;77.80;;;;;;5026518;28;20119;-69
2022/03/22 02:50:12;;;;;;;8.40;5.82;;;-0.70;78.00;;;;;;5020839;28;20128;-69
2022/03/22 02:52:39;;;;;;;8.15;4.97;;;-0.70;78.80;;;;;;5014819;28;20096;-69
2022/03/22 02:55:06;;;;;;;10.25;4.72;;;-0.60;78.90;;;;;;5015334;28;20046;-69
2022/03/22 02:57:34;;;;;;;7.15;5.28;;;-0.60;78.40;;;;;;5017541;28;20030;-70
2022/03/22 02:59:59;;;;;;;10.27;5.03;;;-0.60;78.60;;;;;;5021681;28;20034;-69
2022/03/22 03:02:25;;;;;;;7.15;4.55;;;-0.50;79.30;;;;;;5015129;28;20548;-68
2022/03/22 03:04:51;;;;;;;9.10;4.97;;;-0.50;79.50;;;;;;5014894;28;20053;-68
2022/03/22 03:07:17;;;;;;;10.00;5.15;;;-0.60;78.40;;;;;;5020542;28;20041;-69
2022/03/22 03:09:42;;;;;;;7.50;4.72;;;-0.80;78.50;;;;;;5016261;28;20041;-69
2022/03/22 03:12:09;;;;;;;10.43;4.38;;;-0.90;78.90;;;;;;5003804;28;20037;-70
2022/03/22 03:14:40;;;;;;;6.55;4.18;;;-1.00;80.20;;;;;;5019966;28;20041;-71
2022/03/22 03:17:08;;;;;;;8.73;4.72;;;-0.90;80.80;;;;;;5017245;28;20121;-71
2022/03/22 03:19:34;;;;;;;8.73;4.78;;;-0.80;80.60;;;;;;5018737;28;20033;-71
2022/03/22 03:22:00;;;;;;;7.93;4.75;;;-0.80;80.90;;;;;;5021928;28;20525;-71
2022/03/22 03:24:25;;;;;;;8.75;5.35;;;-0.80;81.00;;;;;;5015902;28;20129;-71
2022/03/22 03:26:51;;;;;;;9.68;5.15;;;-0.80;81.00;;;;;;5018465;28;20123;-70
2022/03/22 03:29:17;;;;;;;7.65;4.95;;;-0.90;80.40;;;;;;5015831;28;20029;-71
2022/03/22 03:31:43;;;;;;;7.75;5.60;;;-0.90;80.80;;;;;;5014508;28;20108;-71
2022/03/22 03:34:09;;;;;;;5.82;4.30;;;-0.90;81.70;;;;;;5019432;28;20038;-71
2022/03/22 03:36:35;;;;;;;7.65;4.82;;;-0.80;81.10;;;;;;5015519;28;20593;-71
2022/03/22 03:39:03;;;;;;;7.85;4.07;;;-0.80;81.30;;;;;;5016900;28;20541;-71
2022/03/22 03:47:04;;;;;;;8.52;4.72;;;-0.90;82.10;;;;;;5024752;28;20072;-70
2022/03/22 03:49:40;;;;;;;11.05;4.93;;;-0.90;81.40;;;;;;5031137;28;20362;-71
2022/03/22 03:52:11;;;;;;;7.05;4.50;;;-0.90;80.80;;;;;;5014886;28;20971;-71
2022/03/22 03:54:37;;;;;;;7.60;5.00;;;-0.90;80.10;;;;;;5022929;28;20064;-70
2022/03/22 03:57:03;;;;;;;7.55;4.82;;;-1.00;80.90;;;;;;5028599;28;20042;-71
2022/03/22 03:59:29;;;;;;;7.35;5.10;;;-1.00;81.40;;;;;;5024912;28;20056;-71
2022/03/22 04:01:55;;;;;;;7.65;4.25;;;-0.90;81.50;;;;;;5020568;28;20046;-71
2022/03/22 04:04:20;;;;;;;58.03;47.72;;;-0.90;81.90;;;;;;5024885;28;20536;-70
2022/03/22 04:06:47;;;;;;;6.15;4.38;;;-0.90;81.10;;;;;;5026682;28;20048;-71
2022/03/22 04:09:14;;;;;;;7.60;4.20;;;-0.90;81.30;;;;;;5028112;28;20025;-70
2022/03/22 04:11:40;;;;;;;9.35;4.40;;;-1.00;80.80;;;;;;5030779;28;20993;-70
2022/03/22 04:14:06;;;;;;;7.78;4.75;;;-1.10;80.80;;;;;;5024263;28;20099;-71
2022/03/22 04:16:32;;;;;;;7.70;4.35;;;-1.20;81.30;;;;;;5022481;28;21388;-71
2022/03/22 04:18:58;;;;;;;13.43;5.40;;;-1.20;82.40;;;;;;5015457;28;20045;-71
2022/03/22 04:21:23;;;;;;;8.93;4.75;;;-1.10;82.60;;;;;;5014184;28;20045;-71
2022/03/22 04:23:49;;;;;;;12.02;5.43;;;-1.00;81.80;;;;;;5024022;28;20040;-70
2022/03/22 04:26:15;;;;;;;10.07;5.65;;;-0.80;81.50;;;;;;5023775;28;20049;-71
2022/03/22 04:34:08;;;;;;;9.70;6.22;;;-0.80;80.20;;;;;;5022893;28;20044;-71
2022/03/22 04:36:35;;;;;;;9.45;5.68;;;-1.00;81.00;;;;;;5022963;28;20042;-71
2022/03/22 04:39:01;;;;;;;7.75;4.90;;;-1.00;82.20;;;;;;5015973;28;20140;-70
2022/03/22 04:41:28;;;;;;;9.95;5.35;;;-1.10;82.40;;;;;;5019682;28;20049;-71
2022/03/22 04:43:54;;;;;;;10.10;5.03;;;-1.20;82.90;;;;;;5017618;28;20033;-71
2022/03/22 04:46:19;;;;;;;8.75;4.82;;;-1.20;83.30;;;;;;5015110;28;20041;-71
2022/03/22 04:48:45;;;;;;;7.25;5.05;;;-1.30;83.60;;;;;;5017139;28;20141;-70
2022/03/22 04:56:46;;;;;;;8.57;4.43;;;-1.40;82.40;;;;;;5014654;28;20576;-71
2022/03/22 04:59:13;;;;;;;7.13;4.05;;;-1.30;83.60;;;;;;5017582;28;20491;-70
2022/03/22 05:01:39;;;;;;;7.50;4.32;;;-1.30;83.70;;;;;;5012521;28;20563;-71
2022/03/22 05:04:05;;;;;;;7.28;4.57;;;-1.30;83.80;;;;;;5015527;28;20049;-70
2022/03/22 05:06:35;;;;;;;11.85;5.32;;;-1.20;84.00;;;;;;5011720;28;20084;-70
2022/03/22 05:09:02;;;;;;;13.88;7.30;;;-1.20;83.60;;;;;;5009721;28;20037;-71
2022/03/22 05:11:27;;;;;;;13.48;6.85;;;-1.20;83.40;;;;;;5014610;28;20125;-71
2022/03/22 05:13:56;;;;;;;16.13;5.50;;;-1.10;82.90;;;;;;5009558;28;20125;-71
2022/03/22 05:16:22;;;;;;;9.50;5.10;;;-1.00;82.00;;;;;;5018072;28;20194;-71
2022/03/22 05:18:48;;;;;;;9.60;6.00;;;-0.80;82.10;;;;;;5023607;28;20109;-71
2022/03/22 05:21:14;;;;;;;9.43;5.78;;;-0.80;82.70;;;;;;5019785;28;20045;-71
2022/03/22 05:23:39;;;;;;;9.55;5.35;;;-0.80;82.00;;;;;;5018559;28;20390;-70
2022/03/22 05:26:05;;;;;;;10.25;5.80;;;-0.90;81.70;;;;;;5018756;28;20053;-71
2022/03/22 05:28:34;;;;;;;10.18;5.07;;;-0.80;82.70;;;;;;5016071;28;20049;-71
2022/03/22 05:31:00;;;;;;;11.45;6.30;;;-0.80;84.00;;;;;;5014799;28;20076;-71
2022/03/22 05:33:25;;;;;;;7.80;5.13;;;-0.60;83.80;;;;;;5019489;28;20713;-71
2022/03/22 05:35:51;;;;;;;9.10;5.18;;;-0.40;83.20;;;;;;5019573;28;20128;-71
2022/03/22 05:38:16;;;;;;;7.82;5.10;;;-0.40;82.20;;;;;;5009666;28;20406;-71
2022/03/22 05:40:42;;;;;;;9.77;5.70;;;-0.30;82.00;;;;;;5019251;28;20045;-71
2022/03/22 05:43:08;;;;;;;9.50;5.95;;;-0.20;82.50;;;;;;5013351;28;20494;-70
2022/03/22 05:45:34;;;;;;;13.27;6.18;;;0.00;81.60;;;;;;5013163;28;20152;-70
2022/03/22 05:48:00;;;;;;;14.20;7.65;;;0.10;81.00;;;;;;5023400;28;20045;-70
2022/03/22 05:50:27;;;;;;;42.70;11.13;;;0.30;80.60;;;;;;5021883;28;20605;-70
2022/03/22 05:52:52;;;;;;;17.50;8.10;;;0.50;80.60;;;;;;5009573;28;20461;-71
2022/03/22 05:55:18;;;;;;;16.45;8.45;;;0.70;80.30;;;;;;5006007;28;20446;-72
2022/03/22 05:57:44;;;;;;;14.95;7.55;;;0.90;80.00;;;;;;5019135;28;20029;-70
2022/03/22 06:00:12;;;;;;;9.10;6.22;;;1.10;79.80;;;;;;5013768;28;20057;-69
2022/03/22 06:02:39;;;;;;;13.98;7.47;;;1.20;76.10;;;;;;5017594;28;20049;-71
2022/03/22 06:05:09;;;;;;;14.52;8.85;;;1.10;73.00;;;;;;5016041;28;20559;-71
2022/03/22 06:07:36;;;;;;;16.02;8.60;;;1.20;73.70;;;;;;5018726;28;20129;-69
2022/03/22 06:10:03;;;;;;;19.42;8.57;;;1.40;73.80;;;;;;5019602;28;20041;-70
2022/03/22 06:12:42;;;;;;;12.32;8.35;;;1.60;72.70;;;;;;5004526;28;20057;-69
2022/03/22 06:15:15;;;;;;;12.80;8.35;;;1.70;72.10;;;;;;5020510;28;20042;-68
2022/03/22 06:17:48;;;;;;;16.65;10.02;;;1.90;72.10;;;;;;5022966;28;20029;-71
2022/03/22 06:20:14;;;;;;;14.25;9.32;;;2.10;72.80;;;;;;5021561;28;20097;-71
2022/03/22 06:22:41;;;;;;;14.00;10.18;;;2.30;71.50;;;;;;5018630;28;20041;-72
2022/03/22 06:25:07;;;;;;;17.55;10.35;;;2.60;70.60;;;;;;5022328;28;20483;-71
2022/03/22 06:27:35;;;;;;;16.45;11.63;;;2.90;69.60;;;;;;5022243;28;20060;-71
2022/03/22 06:30:06;;;;;;;21.98;11.32;;;3.00;69.10;;;;;;5028072;28;20041;-70
2022/03/22 06:32:39;;;;;;;19.33;10.75;;;3.20;69.40;;;;;;5022939;28;20040;-73
2022/03/22 06:35:05;;;;;;;17.73;10.68;;;3.40;69.40;;;;;;5019575;28;20047;-71
2022/03/22 06:37:30;;;;;;;16.50;11.27;;;3.60;68.80;;;;;;5015682;28;20995;-73
2022/03/22 06:39:56;;;;;;;16.52;11.35;;;3.80;68.00;;;;;;5018683;28;20123;-73
2022/03/22 06:42:22;;;;;;;20.30;11.05;;;4.00;67.70;;;;;;5017814;28;20064;-72
2022/03/22 06:44:49;;;;;;;19.40;11.65;;;4.10;68.30;;;;;;5024129;28;20041;-72
2022/03/22 06:47:14;;;;;;;16.20;10.02;;;4.30;68.50;;;;;;5023634;28;20199;-72
2022/03/22 06:49:41;;;;;;;13.10;9.23;;;4.50;68.40;;;;;;5029010;28;20820;-72
2022/03/22 06:52:07;;;;;;;13.93;8.93;;;4.70;67.60;;;;;;5021760;28;20679;-72
2022/03/22 06:54:32;;;;;;;12.52;8.68;;;4.90;67.10;;;;;;5021334;28;20037;-72
2022/03/22 06:56:58;;;;;;;14.15;8.50;;;5.10;65.60;;;;;;5025784;28;20477;-72
2022/03/22 06:59:25;;;;;;;11.98;8.43;;;5.20;64.00;;;;;;5019343;28;20038;-73
2022/03/22 07:01:51;;;;;;;19.15;9.48;;;5.50;62.90;;;;;;5003122;28;20038;-73
2022/03/22 07:04:16;;;;;;;13.10;8.63;;;5.60;62.20;;;;;;5032662;28;20044;-73
2022/03/22 07:06:42;;;;;;;14.52;8.13;;;5.80;61.30;;;;;;5003918;28;20053;-73
2022/03/22 07:09:08;;;;;;;15.57;8.50;;;6.10;60.40;;;;;;5022173;28;20048;-73
2022/03/22 07:11:52;;;;;;;12.38;7.78;;;6.40;59.90;;;;;;5029814;28;20410;-73
2022/03/22 07:14:19;;;;;;;11.32;7.93;;;6.60;57.80;;;;;;5030197;28;20030;-73
2022/03/22 07:16:47;;;;;;;10.73;6.47;;;6.80;57.60;;;;;;5022917;28;20040;-73
2022/03/22 07:19:23;;;;;;;9.10;6.53;;;7.00;57.60;;;;;;5025576;28;20099;-73
2022/03/22 07:21:49;;;;;;;12.45;7.57;;;7.20;55.20;;;;;;5029887;28;20049;-73
2022/03/22 07:24:20;;;;;;;12.27;7.20;;;7.40;55.70;;;;;;5024707;28;20067;-73
2022/03/22 07:26:46;;;;;;;9.35;6.88;;;7.60;55.20;;;;;;5025723;28;20049;-74
2022/03/22 07:29:15;;;;;;;8.30;6.07;;;7.80;54.80;;;;;;5031853;28;20052;-74
2022/03/22 07:31:41;;;;;;;9.90;6.07;;;8.00;53.00;;;;;;5023409;28;20050;-73
2022/03/22 07:34:09;;;;;;;10.32;5.45;;;8.30;51.70;;;;;;5019879;28;20235;-74
2022/03/22 07:36:39;;;;;;;8.52;5.50;;;8.50;50.40;;;;;;5022296;28;20514;-74
2022/03/22 07:39:07;;;;;;;8.88;5.60;;;8.70;49.30;;;;;;5029658;28;20038;-74
2022/03/22 07:41:37;;;;;;;11.55;6.20;;;8.80;49.10;;;;;;5027294;28;20514;-75
2022/03/22 07:44:04;;;;;;;8.23;6.43;;;9.00;49.10;;;;;;5022749;28;20052;-74
2022/03/22 07:46:30;;;;;;;9.90;5.20;;;9.20;48.90;;;;;;5026172;28;20510;-74
2022/03/22 07:52:58;;;;;;;9.43;5.30;;;9.40;47.40;;;;;;5024528;28;20026;-74
2022/03/22 07:54:26;;;;;;;11.00;5.80;;;9.70;44.80;;;;;;5018504;28;20044;-74
2022/03/22 07:56:52;;;;;;;5.97;5.20;;;9.90;44.40;;;;;;5017790;28;20072;-74
2022/03/22 07:59:18;;;;;;;10.20;6.13;;;10.00;44.50;;;;;;5020319;28;20099;-74
2022/03/22 08:01:43;;;;;;;12.00;5.70;;;10.10;45.10;;;;;;5013973;28;20033;-74
2022/03/22 08:04:09;;;;;;;8.35;5.88;;;10.20;45.20;;;;;;5024319;28;20026;-74
2022/03/22 08:06:35;;;;;;;8.73;6.72;;;10.50;45.10;;;;;;5016554;28;20057;-74
2022/03/22 08:09:00;;;;;;;7.47;5.28;;;10.70;44.10;;;;;;5012787;28;20049;-74
2022/03/22 08:11:26;;;;;;;8.27;5.97;;;10.80;43.90;;;;;;5017929;28;20053;-75
2022/03/22 08:13:52;;;;;;;9.88;6.53;;;10.90;42.90;;;;;;5009262;28;20128;-74
2022/03/22 08:16:17;;;;;;;8.50;5.75;;;10.90;42.30;;;;;;4991437;28;20037;-75
2022/03/22 08:18:43;;;;;;;7.25;5.72;;;10.90;41.60;;;;;;5015057;28;20469;-75
2022/03/22 08:21:08;;;;;;;7.50;6.40;;;11.00;42.00;;;;;;5013869;28;20072;-74
2022/03/22 08:23:34;;;;;;;11.75;6.45;;;11.10;41.50;;;;;;5014258;28;20176;-75
2022/03/22 08:26:00;;;;;;;8.75;6.45;;;11.30;41.50;;;;;;5020257;28;20110;-75
2022/03/22 08:28:26;;;;;;;10.35;6.15;;;11.40;40.40;;;;;;5026497;28;20100;-76
2022/03/22 08:30:52;;;;;;;9.68;6.50;;;11.50;40.40;;;;;;5020412;28;20036;-75
2022/03/22 08:33:18;;;;;;;11.43;6.80;;;11.70;40.00;;;;;;5020643;28;20572;-75
2022/03/22 08:35:46;;;;;;;8.85;6.60;;;11.70;39.90;;;;;;5026263;28;20051;-75
2022/03/22 08:38:13;;;;;;;8.75;6.40;;;11.70;39.50;;;;;;4992175;28;20060;-75
2022/03/22 08:40:39;;;;;;;9.20;6.57;;;11.80;39.70;;;;;;5015706;28;20502;-75
2022/03/22 08:43:07;;;;;;;11.43;7.47;;;12.00;38.60;;;;;;5017707;28;20048;-75
2022/03/22 08:45:34;;;;;;;9.85;7.30;;;12.20;38.90;;;;;;5005528;28;20980;-76
2022/03/22 08:48:02;;;;;;;13.43;7.03;;;12.40;38.70;;;;;;5000357;28;20659;-75
2022/03/22 08:50:28;;;;;;;10.75;7.10;;;12.60;39.00;;;;;;5022203;28;20136;-75
2022/03/22 08:52:56;;;;;;;11.45;7.05;;;12.60;38.00;;;;;;5017981;28;20509;-75
2022/03/22 08:55:23;;;;;;;10.50;7.40;;;12.60;38.90;;;;;;5024191;28;20025;-75
2022/03/22 08:57:49;;;;;;;11.45;6.93;;;12.70;38.80;;;;;;5019274;28;20573;-75
2022/03/22 09:00:19;;;;;;;9.77;7.70;;;12.90;38.50;;;;;;5020851;28;20052;-74
2022/03/22 09:02:46;;;;;;;11.93;7.80;;;12.90;38.40;;;;;;5021806;28;20132;-75
2022/03/22 09:08:01;;;;;;;11.57;8.30;;;13.00;37.90;;;;;;5021988;28;20044;-75
2022/03/22 09:10:27;;;;;;;9.55;8.10;;;13.20;37.50;;;;;;5021220;28;20049;-75
2022/03/22 09:12:54;;;;;;;13.73;8.95;;;13.20;36.50;;;;;;5020077;28;20100;-76
2022/03/22 09:15:22;;;;;;;13.73;8.30;;;13.20;36.70;;;;;;5020257;28;20549;-75
2022/03/22 09:17:49;;;;;;;11.77;8.77;;;13.30;37.20;;;;;;5012498;28;20561;-75
2022/03/22 09:20:15;;;;;;;13.82;8.85;;;13.40;36.60;;;;;;5015650;28;20487;-75
2022/03/22 09:22:43;;;;;;;12.90;8.80;;;13.60;36.00;;;;;;5014784;28;20053;-75
2022/03/22 09:25:12;;;;;;;11.77;9.60;;;13.80;34.80;;;;;;4999745;28;22296;-75
2022/03/22 09:27:39;;;;;;;12.00;8.55;;;14.00;34.70;;;;;;5022942;28;20042;-75
2022/03/22 09:30:06;;;;;;;12.65;9.10;;;14.10;34.50;;;;;;5025629;28;20037;-75
2022/03/22 09:32:32;;;;;;;14.20;8.95;;;14.10;34.00;;;;;;5023090;28;20037;-75
2022/03/22 09:35:00;;;;;;;14.20;9.27;;;14.20;33.50;;;;;;5003884;28;20161;-75
2022/03/22 09:37:27;;;;;;;11.98;8.90;;;14.30;32.30;;;;;;5018108;28;20034;-75
2022/03/22 09:39:53;;;;;;;13.35;9.13;;;14.20;32.90;;;;;;5016319;28;20424;-76
2022/03/22 09:42:19;;;;;;;13.50;8.95;;;14.20;33.10;;;;;;5014455;28;20048;-75
2022/03/22 09:44:51;;;;;;;12.80;8.55;;;14.30;33.50;;;;;;5018894;28;20600;-75
2022/03/22 09:47:17;;;;;;;14.30;9.63;;;14.50;33.30;;;;;;5018083;28;20065;-75
2022/03/22 09:49:43;;;;;;;10.95;8.77;;;14.60;32.20;;;;;;5006128;23;20755;-69
2022/03/22 09:52:14;;;;;;;11.77;8.63;;;14.60;31.00;;;;;;5020095;28;20332;-70
2022/03/22 09:54:40;;;;;;;13.68;8.90;;;14.60;32.20;;;;;;5018355;28;20029;-69
2022/03/22 09:57:07;;;;;;;10.75;8.82;;;14.60;32.60;;;;;;5019886;28;20183;-69
2022/03/22 09:59:33;;;;;;;11.45;8.80;;;14.70;31.80;;;;;;5012815;28;20545;-69
2022/03/22 10:02:06;;;;;;;13.20;8.90;;;14.80;33.50;;;;;;5011311;28;20048;-69
2022/03/22 10:04:40;;;;;;;9.25;8.18;;;14.90;32.70;;;;;;5019370;28;21390;-69
2022/03/22 10:07:07;;;;;;;12.82;8.63;;;15.00;31.60;;;;;;5004183;28;20040;-69
2022/03/22 10:09:39;;;;;;;18.13;8.95;;;15.00;31.00;;;;;;5013547;28;20033;-69
2022/03/22 10:12:07;;;;;;;12.45;8.85;;;15.10;31.20;;;;;;5017081;28;20489;-69
2022/03/22 10:14:41;;;;;;;11.52;7.55;;;15.30;30.20;;;;;;5020122;28;20045;-69
2022/03/22 10:17:15;;;;;;;11.88;8.38;;;15.40;30.10;;;;;;5026963;28;20041;-69
2022/03/22 10:19:42;;;;;;;10.10;7.93;;;15.40;29.50;;;;;;5033501;28;20037;-69
2022/03/22 10:22:11;;;;;;;12.20;7.95;;;15.50;29.10;;;;;;5028142;28;20536;-71
2022/03/22 10:24:47;;;;;;;13.98;8.82;;;15.50;30.00;;;;;;5035992;28;20302;-70
2022/03/22 10:27:19;;;;;;;15.90;8.18;;;15.60;30.60;;;;;;5032565;28;20483;-70
2022/03/22 10:29:45;;;;;;;15.82;8.27;;;15.60;29.60;;;;;;5033346;28;20091;-70
2022/03/22 10:32:11;;;;;;;12.23;8.00;;;15.70;30.20;;;;;;5026974;28;20095;-70
2022/03/22 10:34:36;;;;;;;12.30;8.73;;;15.80;29.10;;;;;;5032367;28;20037;-71
2022/03/22 10:37:02;;;;;;;12.80;8.60;;;15.80;29.20;;;;;;5027237;28;20065;-70
2022/03/22 10:39:28;;;;;;;14.30;8.75;;;15.90;29.70;;;;;;5031379;28;20057;-70
2022/03/22 10:42:04;;;;;;;13.13;8.90;;;16.10;29.20;;;;;;5038758;28;20044;-70
2022/03/22 10:44:37;;;;;;;10.68;7.80;;;16.10;29.10;;;;;;5035808;28;20123;-70
2022/03/22 10:47:04;;;;;;;10.35;7.75;;;16.10;28.00;;;;;;5035393;28;20120;-70
2022/03/22 10:49:29;;;;;;;11.55;7.82;;;16.10;28.40;;;;;;5031775;28;20029;-70
2022/03/22 10:51:56;;;;;;;13.52;7.90;;;16.20;28.20;;;;;;5035485;28;20104;-70
2022/03/22 10:54:22;;;;;;;11.27;7.93;;;16.20;27.80;;;;;;5021864;28;20045;-70
2022/03/22 10:56:51;;;;;;;12.75;7.85;;;16.30;27.90;;;;;;5028647;28;20067;-70
2022/03/22 10:59:24;;;;;;;11.13;8.07;;;16.40;28.20;;;;;;5030016;28;20039;-70
2022/03/22 11:01:52;;;;;;;10.18;7.25;;;16.40;29.00;;;;;;5033554;28;20733;-70
2022/03/22 11:04:21;;;;;;;10.15;7.05;;;16.50;28.50;;;;;;5031700;28;20041;-70
2022/03/22 11:06:47;;;;;;;10.73;6.88;;;16.50;28.10;;;;;;5031182;28;20414;-70
2022/03/22 11:09:25;;;;;;;10.48;6.68;;;16.50;28.60;;;;;;5028964;28;20048;-70
2022/03/22 11:11:51;;;;;;;9.65;5.47;;;16.50;28.40;;;;;;5029810;28;20064;-70
2022/03/22 11:14:18;;;;;;;8.05;5.85;;;16.60;26.80;;;;;;5035298;28;20136;-70
2022/03/22 11:16:47;;;;;;;7.00;5.50;;;16.50;27.00;;;;;;5037176;28;20444;-70
2022/03/22 11:19:15;;;;;;;8.93;6.57;;;16.50;27.80;;;;;;5039216;28;20106;-70
2022/03/22 11:21:41;;;;;;;9.45;6.00;;;16.70;27.60;;;;;;5023395;28;20037;-71
2022/03/22 11:24:09;;;;;;;8.10;4.63;;;16.90;27.10;;;;;;5028004;28;20033;-71
2022/03/22 11:26:46;;;;;;;6.40;4.57;;;16.90;26.00;;;;;;5032796;28;20052;-71
2022/03/22 11:29:14;;;;;;;8.23;5.50;;;17.00;26.30;;;;;;5032731;28;20033;-71
2022/03/22 11:31:42;;;;;;;9.80;5.68;;;17.00;26.90;;;;;;5033305;28;20068;-71
2022/03/22 11:34:09;;;;;;;7.72;5.68;;;17.20;26.50;;;;;;5035177;28;20033;-71
2022/03/22 11:36:47;;;;;;;5.97;4.53;;;17.30;25.90;;;;;;5035466;28;20480;-71
2022/03/22 11:42:15;;;;;;;7.57;5.45;;;17.40;25.60;;;;;;5032912;28;20044;-71
2022/03/22 11:42:20;;;;;;;5.90;4.90;;;17.40;25.90;;;;;;5033932;28;20037;-72
2022/03/22 11:44:58;;;;;;;6.65;4.60;;;17.40;26.20;;;;;;5034461;28;20242;-72
2022/03/22 11:47:25;;;;;;;5.95;4.70;;;17.50;25.90;;;;;;5032197;28;20152;-69
2022/03/22 11:49:58;;;;;;;7.93;4.97;;;17.60;26.30;;;;;;5027573;28;20108;-69
2022/03/22 11:52:33;;;;;;;9.52;4.45;;;17.70;25.60;;;;;;5035914;28;20041;-69
2022/03/22 11:54:59;;;;;;;8.77;5.30;;;17.60;25.00;;;;;;5031063;28;20128;-69
2022/03/22 11:57:26;;;;;;;13.15;6.10;;;17.30;25.20;;;;;;5036788;28;20029;-69
2022/03/22 11:59:52;;;;;;;7.03;4.78;;;17.30;25.50;;;;;;5025998;28;20039;-69
2022/03/22 12:02:30;;;;;;;11.18;5.28;;;17.30;25.60;;;;;;5014017;28;20036;-69
2022/03/22 12:04:57;;;;;;;5.40;3.90;;;17.40;26.30;;;;;;5025816;28;20095;-69
2022/03/22 12:07:32;;;;;;;7.13;3.15;;;17.60;26.70;;;;;;5032854;28;20049;-70
2022/03/22 12:10:12;;;;;;;7.90;4.05;;;17.70;26.80;;;;;;5033331;28;20708;-69
2022/03/22 12:12:40;;;;;;;4.90;3.97;;;17.70;25.90;;;;;;5038102;28;20052;-69
2022/03/22 12:15:08;;;;;;;6.40;4.55;;;17.60;25.70;;;;;;5015360;28;20168;-69
2022/03/22 12:17:34;;;;;;;10.48;5.28;;;17.50;25.70;;;;;;5036231;28;20033;-70
2022/03/22 12:20:05;;;;;;;6.68;4.72;;;17.40;26.20;;;;;;5036313;28;20052;-69
2022/03/22 12:22:31;;;;;;;7.37;4.27;;;17.50;26.60;;;;;;5037349;28;20112;-69
2022/03/22 12:24:59;;;;;;;4.95;4.20;;;17.60;26.30;;;;;;5031198;28;20049;-69
2022/03/22 12:27:25;;;;;;;5.88;4.47;;;17.70;26.40;;;;;;5034086;28;20033;-69
2022/03/22 12:29:53;;;;;;;4.95;3.85;;;17.70;26.80;;;;;;5035106;28;20045;-69
2022/03/22 12:32:21;;;;;;;7.20;4.55;;;17.80;26.20;;;;;;5024072;28;20679;-69
2022/03/22 12:34:48;;;;;;;6.50;4.13;;;17.70;26.80;;;;;;5030676;28;20037;-72
2022/03/22 12:37:16;;;;;;;5.47;4.38;;;17.80;26.60;;;;;;5032924;28;20112;-69
2022/03/22 12:39:44;;;;;;;8.70;4.45;;;17.80;26.60;;;;;;5032169;28;20086;-69
2022/03/22 12:42:12;;;;;;;6.00;4.30;;;17.90;27.60;;;;;;5030127;28;20133;-69
2022/03/22 12:44:38;;;;;;;8.07;4.03;;;18.00;28.60;;;;;;5028839;28;20037;-69
2022/03/22 12:47:06;;;;;;;10.52;3.78;;;18.10;28.00;;;;;;5027766;28;20489;-69
2022/03/22 12:49:34;;;;;;;5.82;4.10;;;18.10;27.20;;;;;;5030663;28;20123;-69
2022/03/22 12:52:01;;;;;;;6.60;4.05;;;18.20;27.50;;;;;;5027530;28;20066;-69
2022/03/22 12:54:41;;;;;;;8.23;3.83;;;18.30;27.30;;;;;;5028799;28;20044;-69
2022/03/22 12:57:15;;;;;;;3.70;3.30;;;18.30;26.80;;;;;;5030815;28;20041;-69
2022/03/22 12:59:42;;;;;;;7.70;3.00;;;18.30;27.30;;;;;;5033902;28;20494;-69
2022/03/22 13:02:09;;;;;;;4.70;3.13;;;18.30;27.30;;;;;;5035051;28;20037;-69
2022/03/22 13:04:47;;;;;;;5.55;3.80;;;18.30;27.30;;;;;;5034906;28;20443;-69
2022/03/22 13:07:27;;;;;;;4.15;3.55;;;18.40;26.90;;;;;;5030624;28;20434;-69
2022/03/22 13:12:43;;;;;;;4.82;3.45;;;18.40;26.10;;;;;;5034066;28;20044;-69
2022/03/22 13:15:11;;;;;;;7.70;3.20;;;18.20;26.40;;;;;;5029899;28;20045;-69
2022/03/22 13:17:45;;;;;;;4.63;3.53;;;18.30;26.90;;;;;;5032219;28;20146;-69